Time;durP1;ratioP1;P1;durP2;ratioP2;P2;SDS_P1;SDS_P2;PMS_P1;PMS_P2;Temp;Humidity;BMP_temperature;BMP_pressure;BME280_temperature;BME280_humidity;BME280_pressure;Samples;Min_cycle;Max_cycle;Signal;HPM_P1;HPM_P2
2022/12/11 00:02:16;;;;;;;87.07;19.02;;;;;;;0.19;100.00;101198.06;5009538;28;20045;-72
2022/12/11 00:04:42;;;;;;;83.68;18.10;;;;;;;0.19;100.00;101198.06;5008769;28;20416;-72
2022/12/11 00:07:08;;;;;;;82.20;18.50;;;;;;;0.21;100.00;101191.31;5010706;28;20036;-73
2022/12/11 00:09:33;;;;;;;85.95;18.70;;;;;;;0.21;100.00;101188.75;5010713;28;20044;-72
2022/12/11 00:11:58;;;;;;;99.47;21.45;;;;;;;0.20;100.00;101187.06;5008501;28;20055;-72
2022/12/11 00:14:24;;;;;;;88.32;19.77;;;;;;;0.22;100.00;101191.34;5009687;28;20104;-72
2022/12/11 00:16:49;;;;;;;92.70;19.30;;;;;;;0.23;100.00;101189.66;5008891;28;20138;-73
2022/12/11 00:19:15;;;;;;;92.00;20.80;;;;;;;0.22;100.00;101181.16;4992492;28;20040;-73
2022/12/11 00:21:41;;;;;;;102.97;19.38;;;;;;;0.24;100.00;101181.19;4997760;28;20412;-72
2022/12/11 00:24:06;;;;;;;91.75;18.67;;;;;;;0.19;100.00;101167.50;5009795;28;20030;-72
2022/12/11 00:26:32;;;;;;;107.05;20.98;;;;;;;0.21;100.00;101171.78;5009280;28;20519;-73
2022/12/11 00:28:57;;;;;;;84.85;18.98;;;;;;;0.23;100.00;101187.97;5009848;28;20025;-72
2022/12/11 00:31:23;;;;;;;94.28;19.30;;;;;;;0.21;100.00;101186.19;5009111;28;20022;-72
2022/12/11 00:33:50;;;;;;;84.93;19.40;;;;;;;0.23;100.00;101192.22;5008085;28;20404;-72
2022/12/11 00:36:21;;;;;;;88.05;18.98;;;;;;;0.24;100.00;101194.81;5009914;28;20064;-72
2022/12/11 00:38:47;;;;;;;85.05;19.52;;;;;;;0.26;100.00;101197.41;5008596;28;20034;-72
2022/12/11 00:41:13;;;;;;;94.53;19.92;;;;;;;0.28;100.00;101195.72;5007915;28;20033;-72
2022/12/11 00:43:39;;;;;;;95.05;18.75;;;;;;;0.28;100.00;101182.97;5004113;28;20361;-72
2022/12/11 00:46:04;;;;;;;93.97;19.10;;;;;;;0.31;100.00;101195.81;5003526;28;20022;-72
2022/12/11 00:48:29;;;;;;;79.43;18.73;;;;;;;0.31;100.00;101185.59;5008414;28;20396;-72
2022/12/11 00:50:55;;;;;;;78.35;17.90;;;;;;;0.31;100.00;101189.03;5009748;28;20108;-72
2022/12/11 00:53:20;;;;;;;94.28;18.75;;;;;;;0.31;100.00;101185.59;5007362;28;20091;-72
2022/12/11 00:55:46;;;;;;;88.18;18.02;;;;;;;0.32;100.00;101189.88;5006107;28;20488;-73
2022/12/11 00:58:12;;;;;;;89.90;18.55;;;;;;;0.29;100.00;101177.06;5008482;28;20029;-72
2022/12/11 01:00:39;;;;;;;88.40;20.05;;;;;;;0.29;100.00;101175.38;5008547;28;20026;-72
2022/12/11 01:03:04;;;;;;;88.20;18.55;;;;;;;0.31;100.00;101178.81;5008126;28;20037;-72
2022/12/11 01:05:30;;;;;;;88.13;17.85;;;;;;;0.31;100.00;101175.41;5008286;28;20025;-72
2022/12/11 01:07:55;;;;;;;96.35;18.60;;;;;;;0.30;100.00;101171.13;5007994;28;20040;-72
2022/12/11 01:10:23;;;;;;;79.35;18.73;;;;;;;0.32;100.00;101166.94;5007407;28;20117;-74
2022/12/11 01:12:51;;;;;;;91.38;19.00;;;;;;;0.34;100.00;101180.59;5011508;28;20049;-75
2022/12/11 01:15:18;;;;;;;94.07;18.48;;;;;;;0.33;100.00;101174.63;5012220;28;20025;-74
2022/12/11 01:17:43;;;;;;;82.15;17.13;;;;;;;0.33;100.00;101172.09;5013596;28;20277;-74
2022/12/11 01:20:09;;;;;;;86.07;17.80;;;;;;;0.36;100.00;101177.22;5012582;28;20396;-74
2022/12/11 01:22:34;;;;;;;84.40;17.42;;;;;;;0.37;100.00;101173.88;5012252;28;20026;-75
2022/12/11 01:24:59;;;;;;;87.18;19.00;;;;;;;0.36;100.00;101184.00;5010825;28;20053;-75
2022/12/11 01:27:25;;;;;;;85.38;18.88;;;;;;;0.39;100.00;101181.56;5012203;28;20028;-74
2022/12/11 01:29:50;;;;;;;80.82;18.15;;;;;;;0.36;100.00;101179.78;5013890;28;20036;-74
2022/12/11 01:32:15;;;;;;;87.65;17.65;;;;;;;0.39;100.00;101184.09;5013082;28;20026;-75
2022/12/11 01:34:41;;;;;;;91.43;18.38;;;;;;;0.38;100.00;101172.19;5012287;28;20514;-75
2022/12/11 01:37:07;;;;;;;85.82;17.65;;;;;;;0.39;100.00;101179.00;5012957;28;20041;-74
2022/12/11 01:39:32;;;;;;;79.53;18.27;;;;;;;0.41;100.00;101177.31;5009691;28;20036;-75
2022/12/11 01:42:00;;;;;;;78.68;17.77;;;;;;;0.38;100.00;101177.28;4993391;28;20727;-74
2022/12/11 01:44:25;;;;;;;79.47;16.75;;;;;;;0.43;100.00;101182.47;5010484;28;20396;-75
2022/12/11 01:46:52;;;;;;;78.97;16.98;;;;;;;0.42;100.00;101181.59;5012397;28;20489;-75
2022/12/11 01:49:19;;;;;;;77.15;18.33;;;;;;;0.41;100.00;101182.44;5012459;28;20053;-74
2022/12/11 01:51:51;;;;;;;74.40;16.80;;;;;;;0.43;100.00;101178.22;5010975;28;20061;-74
2022/12/11 01:54:20;;;;;;;76.88;17.23;;;;;;;0.44;100.00;101174.00;5009422;28;20497;-75
2022/12/11 01:56:47;;;;;;;83.25;18.13;;;;;;;0.43;100.00;101173.13;5012205;28;20025;-74
2022/12/11 01:59:16;;;;;;;84.28;17.80;;;;;;;0.44;100.00;101172.31;5012569;28;20033;-74
2022/12/11 02:01:59;;;;;;;83.13;17.85;;;;;;;0.44;100.00;101167.22;5012113;28;20032;-75
2022/12/11 02:04:25;;;;;;;87.28;18.13;;;;;;;0.44;100.00;101164.66;5008507;28;20033;-74
2022/12/11 02:06:51;;;;;;;80.68;17.23;;;;;;;0.45;100.00;101163.84;5012010;28;20033;-74
2022/12/11 02:09:26;;;;;;;86.45;18.10;;;;;;;0.46;100.00;101162.16;5012098;28;20487;-74
2022/12/11 02:12:02;;;;;;;76.10;18.35;;;;;;;0.46;100.00;101157.91;5009373;28;20484;-74
2022/12/11 02:14:46;;;;;;;73.22;16.83;;;;;;;0.46;100.00;101164.69;4993190;28;20034;-74
2022/12/11 02:17:41;;;;;;;74.00;17.00;;;;;;;0.49;100.00;101160.50;5011309;28;20147;-74
2022/12/11 02:20:20;;;;;;;71.00;17.85;;;;;;;0.49;100.00;101160.50;5011862;28;20026;-74
2022/12/11 02:22:54;;;;;;;70.65;16.20;;;;;;;0.49;100.00;101155.41;5010778;28;20246;-74
2022/12/11 02:25:24;;;;;;;;;;;;;;;0.53;100.00;101153.81;5010046;28;20037;-74
2022/12/11 02:27:56;;;;;;;62.67;15.35;;;;;;;0.49;100.00;101155.41;5010623;28;20392;-74
2022/12/11 02:30:22;;;;;;;72.75;16.55;;;;;;;0.49;100.00;101157.09;5007665;28;20038;-74
2022/12/11 02:32:54;;;;;;;71.90;17.67;;;;;;;0.48;100.00;101151.13;5012691;28;20109;-74
2022/12/11 02:35:36;;;;;;;78.97;18.48;;;;;;;0.50;100.00;101159.69;5007029;28;20080;-75
2022/12/11 02:38:07;;;;;;;72.80;17.05;;;;;;;0.48;100.00;101150.31;4989870;28;20026;-74
2022/12/11 02:40:38;;;;;;;73.03;17.17;;;;;;;0.50;100.00;101157.16;5011345;28;20074;-73
2022/12/11 02:43:06;;;;;;;63.25;16.52;;;;;;;0.51;100.00;101163.09;5011868;28;20034;-73
2022/12/11 02:45:34;;;;;;;72.13;17.25;;;;;;;0.52;100.00;101152.09;5006707;28;20036;-73
2022/12/11 02:48:02;;;;;;;69.18;16.90;;;;;;;0.52;100.00;101154.63;5008737;28;20033;-72
2022/12/11 02:50:29;;;;;;;63.95;17.50;;;;;;;0.51;100.00;101152.91;5011318;28;20428;-72
2022/12/11 02:52:56;;;;;;;69.15;17.08;;;;;;;0.52;100.00;101146.97;5011417;28;20029;-72
2022/12/11 02:55:25;;;;;;;65.10;16.73;;;;;;;0.52;100.00;101152.94;5009099;28;20507;-72
2022/12/11 02:57:52;;;;;;;67.47;17.33;;;;;;;0.53;100.00;101143.59;5010986;28;20044;-72
2022/12/11 03:00:18;;;;;;;64.65;17.13;;;;;;;0.55;100.00;101144.47;5010893;28;20571;-72
2022/12/11 03:02:44;;;;;;;63.50;16.95;;;;;;;0.53;100.00;101144.47;5011030;28;20105;-72
2022/12/11 03:05:12;;;;;;;67.03;18.52;;;;;;;0.55;100.00;101144.47;5008641;28;20033;-72
2022/12/11 03:07:40;;;;;;;67.35;17.38;;;;;;;0.54;100.00;101138.56;5010900;28;20400;-73
2022/12/11 03:10:08;;;;;;;61.72;16.75;;;;;;;0.53;100.00;101143.59;5011975;28;20392;-75
2022/12/11 03:12:37;;;;;;;61.47;16.92;;;;;;;0.54;100.00;101136.00;5011212;28;20038;-74
2022/12/11 03:15:06;;;;;;;61.58;17.30;;;;;;;0.55;100.00;101135.16;5009211;28;20030;-74
2022/12/11 03:17:37;;;;;;;56.88;16.38;;;;;;;0.54;100.00;101133.44;5010371;28;20070;-74
2022/12/11 03:20:08;;;;;;;56.67;17.65;;;;;;;0.55;100.00;101124.94;5011069;28;20030;-74
2022/12/11 03:22:46;;;;;;;65.53;18.10;;;;;;;0.55;100.00;101127.50;5010615;28;20539;-74
2022/12/11 03:25:27;;;;;;;61.30;15.88;;;;;;;0.57;100.00;101124.97;4988297;28;20026;-75
2022/12/11 03:28:02;;;;;;;63.63;16.92;;;;;;;0.52;100.00;101124.91;4993208;28;20090;-74
2022/12/11 03:30:31;;;;;;;57.88;17.15;;;;;;;0.52;100.00;101124.03;5008621;28;20029;-74
2022/12/11 03:33:03;;;;;;;61.67;16.08;;;;;;;0.52;100.00;101124.91;5009776;28;20087;-75
2022/12/11 03:35:34;;;;;;;53.75;15.88;;;;;;;0.51;100.00;101130.81;5009866;28;20117;-74
2022/12/11 03:38:05;;;;;;;61.97;16.73;;;;;;;0.51;100.00;101114.66;5010491;28;20103;-74
2022/12/11 03:40:32;;;;;;;59.35;16.77;;;;;;;0.51;100.00;101122.31;5009729;28;20053;-75
2022/12/11 03:42:59;;;;;;;57.75;15.73;;;;;;;0.52;100.00;101124.03;5010613;28;20455;-74
2022/12/11 03:45:28;;;;;;;63.30;16.05;;;;;;;0.51;100.00;101123.16;5007106;28;20396;-74
2022/12/11 03:47:58;;;;;;;57.63;15.93;;;;;;;0.52;100.00;101126.59;5009888;28;20053;-75
2022/12/11 03:50:27;;;;;;;46.17;14.95;;;;;;;0.51;100.00;101123.16;5010377;28;20036;-74
2022/12/11 03:52:53;;;;;;;56.10;15.57;;;;;;;0.50;100.00;101118.88;4992586;28;20034;-74
2022/12/11 03:55:20;;;;;;;50.53;15.75;;;;;;;0.49;100.00;101124.81;5007126;28;20040;-75
2022/12/11 03:57:46;;;;;;;51.67;14.32;;;;;;;0.49;100.00;101123.94;5008682;28;20029;-74
2022/12/11 04:00:15;;;;;;;45.30;14.38;;;;;;;0.49;100.00;101122.25;5007029;28;20452;-75
2022/12/11 04:02:42;;;;;;;42.70;13.05;;;;;;;0.45;100.00;101117.94;4996985;28;20105;-75
2022/12/11 04:05:08;;;;;;;46.78;13.93;;;;;;;0.45;100.00;101114.53;5009026;28;20484;-74
2022/12/11 04:07:33;;;;;;;43.83;13.32;;;;;;;0.43;100.00;101111.94;5010373;28;20084;-74
2022/12/11 04:09:59;;;;;;;43.38;13.20;;;;;;;0.42;100.00;101099.16;5010419;28;20056;-74
2022/12/11 04:12:24;;;;;;;39.65;12.40;;;;;;;0.38;100.00;101106.75;5010329;28;20034;-75
2022/12/11 04:15:02;;;;;;;44.50;13.65;;;;;;;0.36;100.00;101100.75;5008538;28;20113;-75
2022/12/11 04:26:08;;;;;;;40.05;12.38;;;;;;;0.34;100.00;101110.03;4998295;28;20471;-75
2022/12/11 04:28:34;;;;;;;;;;;;;;;0.37;100.00;101107.56;5008620;28;20034;-74
2022/12/11 04:30:59;;;;;;;35.92;11.18;;;;;;;0.33;100.00;101116.00;5011129;28;19943;-75
2022/12/11 04:33:25;;;;;;;37.85;11.73;;;;;;;0.32;100.00;101103.22;5006951;28;20135;-75
2022/12/11 04:35:50;;;;;;;37.35;11.68;;;;;;;0.34;100.00;101101.56;5008807;28;20113;-75
2022/12/11 04:38:16;;;;;;;29.95;10.30;;;;;;;0.32;100.00;101103.22;5009562;28;20034;-75
2022/12/11 04:40:41;;;;;;;36.65;11.10;;;;;;;0.29;100.00;101098.88;5010837;28;20447;-75
2022/12/11 04:43:06;;;;;;;35.83;11.18;;;;;;;0.30;100.00;101107.41;5007263;28;20018;-75
2022/12/11 04:45:32;;;;;;;33.17;10.88;;;;;;;0.27;100.00;101103.09;5009357;28;20036;-75
2022/12/11 04:47:58;;;;;;;34.35;11.57;;;;;;;0.28;100.00;101107.38;5007168;28;20034;-75
2022/12/11 04:50:24;;;;;;;34.13;11.20;;;;;;;0.28;100.00;101103.94;5008375;28;20041;-75
2022/12/11 04:52:53;;;;;;;32.08;10.52;;;;;;;0.29;100.00;101098.03;5007755;28;20074;-75
2022/12/11 04:55:18;;;;;;;33.58;10.95;;;;;;;0.29;100.00;101098.88;5008138;28;20080;-75
2022/12/11 04:57:43;;;;;;;28.98;10.20;;;;;;;0.30;100.00;101092.09;5007636;28;20044;-75
2022/12/11 05:00:11;;;;;;;36.83;11.00;;;;;;;0.31;100.00;101107.44;5009071;28;20022;-75
2022/12/11 05:02:38;;;;;;;37.20;11.35;;;;;;;0.30;100.00;101105.72;5007931;28;20049;-75
2022/12/11 05:05:05;;;;;;;33.45;10.77;;;;;;;0.31;100.00;101104.03;5007657;28;20030;-75
2022/12/11 05:07:30;;;;;;;33.22;11.15;;;;;;;0.30;100.00;101098.06;5009796;28;20447;-75
2022/12/11 05:09:56;;;;;;;35.40;11.27;;;;;;;0.34;100.00;101104.13;5010116;28;20500;-72
2022/12/11 05:12:21;;;;;;;33.67;11.77;;;;;;;0.33;100.00;101107.50;5007909;28;20038;-72
2022/12/11 05:14:50;;;;;;;34.40;11.10;;;;;;;0.34;100.00;101110.03;5009364;28;20041;-72
2022/12/11 05:17:16;;;;;;;31.92;11.00;;;;;;;0.34;100.00;101110.03;5008206;28;20021;-72
2022/12/11 05:19:41;;;;;;;32.35;10.57;;;;;;;0.36;100.00;101105.84;5007275;28;20365;-72
2022/12/11 05:22:06;;;;;;;32.65;11.30;;;;;;;0.36;100.00;101104.97;5008772;28;20018;-72
2022/12/11 05:24:32;;;;;;;32.30;11.00;;;;;;;0.35;100.00;101105.81;5007375;28;20193;-72
2022/12/11 05:26:57;;;;;;;34.30;11.02;;;;;;;0.30;100.00;101094.66;5007501;28;20029;-72
2022/12/11 05:29:23;;;;;;;33.90;12.52;;;;;;;0.31;100.00;101092.16;5008298;28;20391;-72
2022/12/11 05:31:48;;;;;;;38.25;11.55;;;;;;;0.34;100.00;101096.47;5008862;28;20026;-72
2022/12/11 05:34:14;;;;;;;33.80;11.30;;;;;;;0.36;100.00;101092.22;5008455;28;20380;-72
2022/12/11 05:36:40;;;;;;;37.20;12.20;;;;;;;0.36;100.00;101090.56;5009531;28;20267;-72
2022/12/11 05:39:05;;;;;;;32.22;10.70;;;;;;;0.38;100.00;101085.50;5009114;28;20030;-72
2022/12/11 05:41:31;;;;;;;34.42;11.80;;;;;;;0.39;100.00;101077.03;5008847;28;20029;-72
2022/12/11 05:43:57;;;;;;;36.30;12.45;;;;;;;0.39;100.00;101082.97;5007907;28;20034;-72
2022/12/11 05:46:25;;;;;;;36.92;11.43;;;;;;;0.38;100.00;101081.25;5006492;28;20022;-72
2022/12/11 05:48:54;;;;;;;38.05;12.70;;;;;;;0.37;100.00;101076.13;5008567;28;20101;-72
2022/12/11 05:51:20;;;;;;;36.47;11.00;;;;;;;0.38;100.00;101078.72;4994974;28;20083;-72
2022/12/11 05:53:47;;;;;;;35.38;11.45;;;;;;;0.38;100.00;101081.25;5004468;28;20021;-72
2022/12/11 05:56:18;;;;;;;36.53;12.50;;;;;;;0.38;100.00;101077.84;5007924;28;20060;-72
2022/12/11 05:58:44;;;;;;;36.05;12.32;;;;;;;0.37;100.00;101091.41;5010551;28;20052;-72
2022/12/11 06:01:13;;;;;;;34.88;12.40;;;;;;;0.36;100.00;101089.69;5011423;28;20110;-72
2022/12/11 06:03:38;;;;;;;36.92;12.75;;;;;;;0.36;100.00;101088.00;5010369;28;20030;-72
2022/12/11 06:06:05;;;;;;;35.88;12.60;;;;;;;0.36;100.00;101098.19;4993845;28;20079;-72
2022/12/11 06:08:32;;;;;;;38.25;12.65;;;;;;;0.36;100.00;101103.28;5012068;28;20050;-75
2022/12/11 06:10:58;;;;;;;37.15;12.80;;;;;;;0.37;100.00;101104.16;5012982;28;20095;-75
2022/12/11 06:13:23;;;;;;;38.92;13.10;;;;;;;0.35;100.00;101093.94;5009526;28;20064;-75
2022/12/11 06:15:49;;;;;;;36.70;12.20;;;;;;;0.37;100.00;101099.94;5011740;28;20117;-75
2022/12/11 06:18:15;;;;;;;38.10;12.55;;;;;;;0.36;100.00;101092.22;5012152;28;20040;-75
2022/12/11 06:20:40;;;;;;;36.42;12.77;;;;;;;0.39;100.00;101102.50;5011270;28;20029;-75
2022/12/11 06:23:06;;;;;;;41.78;13.10;;;;;;;0.40;100.00;101099.13;5009390;28;20024;-75
2022/12/11 06:25:31;;;;;;;42.38;13.68;;;;;;;0.39;100.00;101094.88;5010977;28;20554;-75
2022/12/11 06:27:57;;;;;;;36.30;12.18;;;;;;;0.39;100.00;101094.88;4992048;28;20037;-75
2022/12/11 06:30:22;;;;;;;36.55;12.43;;;;;;;0.37;100.00;101089.72;5012706;28;20539;-75
2022/12/11 06:32:48;;;;;;;40.28;12.57;;;;;;;0.40;100.00;101091.50;5017053;28;20476;-75
2022/12/11 06:35:13;;;;;;;35.63;12.88;;;;;;;0.39;100.00;101090.63;5010332;28;20040;-75
2022/12/11 06:37:41;;;;;;;37.03;12.73;;;;;;;0.41;100.00;101098.28;5012719;28;20018;-75
2022/12/11 06:40:09;;;;;;;37.00;12.57;;;;;;;0.39;100.00;101092.31;5012512;28;20026;-72
2022/12/11 06:42:34;;;;;;;37.22;12.60;;;;;;;0.42;100.00;101094.91;5012039;28;20022;-72
2022/12/11 06:45:00;;;;;;;38.35;13.10;;;;;;;0.41;100.00;101097.47;5012286;28;20020;-72
2022/12/11 06:47:26;;;;;;;39.80;12.57;;;;;;;0.41;100.00;101083.00;5013097;28;20439;-72
2022/12/11 06:49:52;;;;;;;35.63;11.70;;;;;;;0.40;100.00;101078.75;5010754;28;20030;-72
2022/12/11 06:52:18;;;;;;;36.70;11.80;;;;;;;0.40;100.00;101078.75;5012095;28;20405;-72
2022/12/11 06:54:43;;;;;;;36.63;12.93;;;;;;;0.41;100.00;101079.59;5012149;28;20516;-72
2022/12/11 06:57:09;;;;;;;37.33;12.32;;;;;;;0.40;100.00;101086.41;5012169;28;20053;-72
2022/12/11 06:59:34;;;;;;;30.92;10.75;;;;;;;0.41;100.00;101083.00;5011228;28;20030;-72
2022/12/11 07:01:59;;;;;;;37.53;12.70;;;;;;;0.41;100.00;101082.16;5012319;28;20048;-72
2022/12/11 07:04:26;;;;;;;33.55;12.02;;;;;;;0.44;100.00;101077.97;5010097;28;20029;-72
2022/12/11 07:06:52;;;;;;;32.30;11.40;;;;;;;0.45;100.00;101082.25;5011301;28;20041;-72
2022/12/11 07:09:17;;;;;;;34.03;12.20;;;;;;;0.44;100.00;101084.75;5010327;28;20044;-72
2022/12/11 07:11:43;;;;;;;37.97;11.60;;;;;;;0.47;100.00;101079.72;5011102;28;20045;-72
2022/12/11 07:14:08;;;;;;;31.88;11.18;;;;;;;0.47;100.00;101083.16;5010017;28;20038;-72
2022/12/11 07:16:33;;;;;;;35.75;12.02;;;;;;;0.47;100.00;101087.38;5011061;28;20109;-72
2022/12/11 07:18:59;;;;;;;37.03;11.82;;;;;;;0.47;100.00;101093.34;5011766;28;20076;-72
2022/12/11 07:21:25;;;;;;;31.52;11.18;;;;;;;0.48;100.00;101092.50;5009829;28;20026;-72
2022/12/11 07:23:50;;;;;;;33.78;11.63;;;;;;;0.47;100.00;101092.47;5009642;28;20018;-72
2022/12/11 07:26:18;;;;;;;36.85;11.15;;;;;;;0.47;100.00;101095.03;5011468;28;20029;-72
2022/12/11 07:28:44;;;;;;;35.60;11.05;;;;;;;0.48;100.00;101100.13;5013386;28;20033;-72
2022/12/11 07:31:29;;;;;;;34.70;11.70;;;;;;;0.50;100.00;101095.94;5015232;28;20052;-72
2022/12/11 07:34:00;;;;;;;31.10;11.68;;;;;;;0.48;100.00;101104.41;5009138;28;20523;-72
2022/12/11 07:36:26;;;;;;;32.55;11.35;;;;;;;0.45;100.00;101106.88;5006083;28;20022;-72
2022/12/11 07:38:52;;;;;;;35.15;11.85;;;;;;;0.47;100.00;101110.34;5005399;28;20021;-72
2022/12/11 07:41:17;;;;;;;31.70;11.23;;;;;;;0.49;100.00;101117.16;5002145;28;20022;-72
2022/12/11 07:43:44;;;;;;;31.95;11.15;;;;;;;0.48;100.00;101115.44;5005973;28;20485;-72
2022/12/11 07:46:12;;;;;;;34.60;12.07;;;;;;;0.47;100.00;101111.19;5011442;28;20500;-72
2022/12/11 07:48:40;;;;;;;34.88;12.77;;;;;;;0.51;100.00;101112.09;5014355;28;20025;-72
2022/12/11 07:51:25;;;;;;;33.05;11.75;;;;;;;0.53;100.00;101118.09;5008482;28;20474;-72
2022/12/11 07:53:52;;;;;;;35.15;11.48;;;;;;;0.52;100.00;101116.38;5011007;28;20057;-72
2022/12/11 07:56:18;;;;;;;39.30;12.23;;;;;;;0.54;100.00;101119.84;5006456;28;20443;-72
2022/12/11 07:58:44;;;;;;;33.55;11.82;;;;;;;0.54;100.00;101123.25;5004558;28;20025;-72
2022/12/11 08:01:15;;;;;;;36.13;12.57;;;;;;;0.55;100.00;101124.09;4987498;28;20040;-73
2022/12/11 08:03:41;;;;;;;36.63;12.73;;;;;;;0.53;100.00;101113.88;5005360;28;20038;-73
2022/12/11 08:06:07;;;;;;;37.47;12.48;;;;;;;0.53;100.00;101107.91;5006180;28;20484;-72
2022/12/11 08:08:33;;;;;;;34.38;12.20;;;;;;;0.54;100.00;101113.06;5004223;28;20439;-72
2022/12/11 08:11:03;;;;;;;38.00;12.95;;;;;;;0.55;100.00;101106.22;5003988;28;20480;-73
2022/12/11 08:13:29;;;;;;;36.60;12.98;;;;;;;0.58;100.00;101112.28;5002990;28;20049;-73
2022/12/11 08:15:55;;;;;;;36.45;12.43;;;;;;;0.63;100.00;101112.34;5004193;28;20037;-72
2022/12/11 08:18:20;;;;;;;36.92;12.52;;;;;;;0.65;100.00;101098.81;5003267;28;20037;-75
2022/12/11 08:20:45;;;;;;;32.95;12.10;;;;;;;0.65;100.00;101100.50;5005371;28;20064;-75
2022/12/11 08:23:11;;;;;;;38.45;12.90;;;;;;;0.65;100.00;101101.38;5003951;28;20022;-75
2022/12/11 08:25:36;;;;;;;40.85;12.57;;;;;;;0.66;100.00;101110.75;5006462;28;20022;-75
2022/12/11 08:28:02;;;;;;;33.50;12.10;;;;;;;0.68;100.00;101103.97;5004807;28;20037;-75
2022/12/11 08:30:28;;;;;;;36.50;11.88;;;;;;;0.68;100.00;101109.06;5005979;28;20444;-75
2022/12/11 08:32:54;;;;;;;38.97;13.32;;;;;;;0.71;100.00;101100.63;4990998;28;20488;-75
2022/12/11 08:35:19;;;;;;;38.22;13.00;;;;;;;0.72;100.00;101095.56;5003399;28;20038;-75
2022/12/11 08:37:44;;;;;;;37.80;13.13;;;;;;;0.75;100.00;101098.16;5011448;28;20041;-75
2022/12/11 08:40:11;;;;;;;41.58;12.98;;;;;;;0.76;100.00;101102.44;5010404;28;20037;-75
2022/12/11 08:42:36;;;;;;;35.15;12.13;;;;;;;0.79;100.00;101107.63;4993081;28;20072;-75
2022/12/11 08:45:02;;;;;;;34.67;12.65;;;;;;;0.81;100.00;101099.13;5008143;28;20496;-75
2022/12/11 08:47:28;;;;;;;35.97;13.00;;;;;;;0.82;100.00;101100.84;5008350;28;20034;-75
2022/12/11 08:49:53;;;;;;;35.15;12.77;;;;;;;0.81;100.00;101091.47;5009382;28;20108;-75
2022/12/11 08:52:18;;;;;;;35.72;12.40;;;;;;;0.85;100.00;101099.22;5009022;28;20034;-75
2022/12/11 08:54:44;;;;;;;37.55;12.93;;;;;;;0.87;100.00;101101.81;5008964;28;20049;-75
2022/12/11 08:57:09;;;;;;;40.47;13.82;;;;;;;0.87;100.00;101092.47;5009725;28;20022;-75
2022/12/11 08:59:34;;;;;;;36.17;12.55;;;;;;;0.89;100.00;101090.78;5007660;28;20026;-75
2022/12/11 09:02:00;;;;;;;36.72;13.10;;;;;;;0.91;100.00;101104.44;5004704;28;20502;-75
2022/12/11 09:04:25;;;;;;;41.00;13.75;;;;;;;0.91;100.00;101090.81;5006977;28;20017;-75
2022/12/11 09:06:50;;;;;;;43.88;13.90;;;;;;;0.92;100.00;101093.41;5007445;28;20087;-75
2022/12/11 09:09:17;;;;;;;38.05;13.02;;;;;;;0.92;100.00;101101.06;5010203;28;20026;-74
2022/12/11 09:11:43;;;;;;;43.38;14.00;;;;;;;0.91;100.00;101095.91;5009677;28;20037;-75
2022/12/11 09:14:08;;;;;;;44.30;13.90;;;;;;;0.94;100.00;101091.75;5010242;28;20030;-75
2022/12/11 09:16:39;;;;;;;37.08;13.07;;;;;;;0.97;100.00;101084.13;5010353;28;20468;-74
2022/12/11 09:19:06;;;;;;;37.25;13.23;;;;;;;0.98;100.00;101085.84;5009185;28;20030;-72
2022/12/11 09:21:31;;;;;;;39.20;12.77;;;;;;;0.99;100.00;101094.38;5008351;28;20036;-72
2022/12/11 09:23:59;;;;;;;36.85;12.70;;;;;;;1.00;100.00;101089.31;5009753;28;20030;-73
2022/12/11 09:26:25;;;;;;;36.45;12.63;;;;;;;1.03;100.00;101088.47;5002922;28;20029;-73
2022/12/11 09:28:52;;;;;;;41.33;12.90;;;;;;;1.03;100.00;101091.03;5003569;28;20027;-72
2022/12/11 09:31:22;;;;;;;33.97;11.90;;;;;;;1.05;100.00;101094.50;4984198;28;20112;-72
2022/12/11 09:33:48;;;;;;;37.10;12.70;;;;;;;1.08;100.00;101094.56;5008103;28;20030;-73
2022/12/11 09:36:13;;;;;;;32.35;11.90;;;;;;;1.07;100.00;101095.38;5007485;28;20030;-72
2022/12/11 09:38:39;;;;;;;37.95;12.25;;;;;;;1.08;100.00;101097.13;5007907;28;20030;-72
2022/12/11 09:41:20;;;;;;;36.60;12.48;;;;;;;1.10;100.00;101097.97;5015769;28;20029;-72
2022/12/11 09:43:47;;;;;;;39.00;12.88;;;;;;;1.10;100.00;101095.44;5005636;28;20096;-72
2022/12/11 09:46:15;;;;;;;37.47;12.00;;;;;;;1.12;100.00;101097.19;5011375;28;20120;-72
2022/12/11 09:48:43;;;;;;;37.30;12.43;;;;;;;1.13;100.00;101092.94;5012909;28;20041;-75
2022/12/11 09:51:21;;;;;;;36.55;11.82;;;;;;;1.14;100.00;101089.56;5005268;28;20519;-75
2022/12/11 09:53:49;;;;;;;37.78;12.57;;;;;;;1.16;100.00;101088.75;5008550;28;20404;-75
2022/12/11 09:56:30;;;;;;;34.65;12.60;;;;;;;1.18;100.00;101086.22;4993339;28;20036;-75
2022/12/11 09:59:12;;;;;;;36.13;12.57;;;;;;;1.19;100.00;101083.69;5011153;28;20029;-75
2022/12/11 10:01:49;;;;;;;34.55;11.75;;;;;;;1.22;100.00;101085.47;5012118;28;20652;-75
2022/12/11 10:04:17;;;;;;;34.70;12.02;;;;;;;1.24;100.00;101078.66;5012406;28;20088;-75
2022/12/11 10:06:49;;;;;;;36.15;12.73;;;;;;;1.24;100.00;101081.22;5013022;28;20049;-74
2022/12/11 10:09:33;;;;;;;36.20;12.90;;;;;;;1.24;100.00;101088.88;5010595;28;20054;-75
2022/12/11 10:12:10;;;;;;;35.90;12.13;;;;;;;1.26;100.00;101081.25;5020992;28;20092;-75
2022/12/11 10:14:45;;;;;;;33.00;11.88;;;;;;;1.26;100.00;101077.00;5009386;28;20044;-75
2022/12/11 10:17:26;;;;;;;37.15;12.73;;;;;;;1.28;100.00;101077.91;5012796;28;20132;-75
2022/12/11 10:19:52;;;;;;;35.35;11.20;;;;;;;1.31;100.00;101084.75;5012907;28;20041;-75
2022/12/11 10:22:30;;;;;;;36.03;11.77;;;;;;;1.29;100.00;101074.53;5010710;28;20095;-75
2022/12/11 10:24:58;;;;;;;34.28;12.27;;;;;;;1.30;100.00;101073.66;5006696;28;20030;-75
2022/12/11 10:27:30;;;;;;;30.80;11.32;;;;;;;1.34;100.00;101074.59;5011701;28;20115;-75
2022/12/11 10:30:19;;;;;;;38.95;13.15;;;;;;;1.38;100.00;101068.69;5005557;28;20018;-75
2022/12/11 10:33:00;;;;;;;38.38;12.15;;;;;;;1.42;100.00;101067.94;5012255;28;20030;-75
2022/12/11 10:35:32;;;;;;;34.08;12.68;;;;;;;1.45;100.00;101070.53;5000562;28;20034;-75
2022/12/11 10:38:10;;;;;;;35.38;12.40;;;;;;;1.47;100.00;101067.16;5011003;28;20039;-75
2022/12/11 10:40:38;;;;;;;35.80;12.60;;;;;;;1.47;100.00;101067.16;5009103;28;20052;-75
2022/12/11 10:43:04;;;;;;;33.22;11.93;;;;;;;1.47;100.00;101068.88;5007315;28;20468;-75
2022/12/11 10:45:29;;;;;;;35.53;12.43;;;;;;;1.46;100.00;101068.00;5010856;28;20501;-75
2022/12/11 10:48:11;;;;;;;36.50;12.65;;;;;;;1.47;100.00;101064.63;5012489;28;20025;-75
2022/12/11 10:50:36;;;;;;;41.47;12.93;;;;;;;1.46;100.00;101062.91;4994445;28;20054;-75
2022/12/11 10:53:02;;;;;;;38.53;12.48;;;;;;;1.48;100.00;101060.38;5009862;28;20053;-75
2022/12/11 10:55:36;;;;;;;33.65;11.35;;;;;;;1.48;100.00;101061.22;5011123;28;20735;-75
2022/12/11 10:58:04;;;;;;;34.15;12.43;;;;;;;1.52;100.00;101054.47;5012175;28;20034;-75
2022/12/11 11:00:32;;;;;;;33.65;12.63;;;;;;;1.54;100.00;101055.34;5011178;28;20488;-75
2022/12/11 11:02:58;;;;;;;35.90;11.88;;;;;;;1.56;100.00;101049.44;5008221;28;20477;-75
2022/12/11 11:05:41;;;;;;;37.70;12.57;;;;;;;1.63;100.00;101049.53;5004924;28;20018;-75
2022/12/11 11:08:14;;;;;;;36.95;11.98;;;;;;;1.62;100.00;101047.81;5008485;28;20105;-75
2022/12/11 11:10:55;;;;;;;35.97;12.57;;;;;;;1.62;100.00;101046.13;5012094;28;20026;-75
2022/12/11 11:13:29;;;;;;;38.10;12.00;;;;;;;1.62;100.00;101047.81;5009683;28;20049;-75
2022/12/11 11:16:01;;;;;;;39.60;13.38;;;;;;;1.63;100.00;101050.41;4992873;28;20113;-76
2022/12/11 11:18:29;;;;;;;34.13;12.10;;;;;;;1.63;100.00;101045.31;5016771;28;20453;-77
2022/12/11 11:20:55;;;;;;;37.45;12.55;;;;;;;1.61;100.00;101046.09;5010988;28;20111;-76
2022/12/11 11:23:21;;;;;;;34.88;12.35;;;;;;;1.59;100.00;101046.94;5010399;28;20476;-76